22.4°F
Current conditions from King Hill
Updated every 5 minutes
 
  Saturday December 20, 2014

Station Historical Data
Daily Summary for March 29, 2012 Units:  English    Metric   Both
« Previous Day
Next Day »
Daily Weekly Monthly Yearly Custom
  High: Low: Average:
Temperature: 34.7 °F 30.1 °F 32.4 °F
Dew Point: 31.9 °F 23.6 °F 29 °F
Humidity: 94% 70% 87%
Wind Speed: 7.0mph 1.0mph 2.5mph
Wind Gust: 18.0mph - -
Wind- - WNW
Pressure: 29.95 in 29.58 in -
Precipitation: 0.02 in    
Historical Graphs
 
 
Tabular Data for March 29, 2012
Time Temperature Dew Point Pressure Wind Wind Speed Wind Gust Humidity Daily Rainfall
00:04 34.4 °F 31.8 °F 29.58 in NW 5.0 mph 10.0 mph 90% 0.00 in
00:09 34.3 °F 31.9 °F 29.59 in NNW 3.0 mph 10.0 mph 91% 0.00 in
00:14 34.2 °F 31.8 °F 29.59 in NW 1.0 mph 9.0 mph 91% 0.00 in
00:19 34.1 °F 31.8 °F 29.59 in WNW 3.0 mph 7.0 mph 91% 0.00 in
00:24 34.1 °F 31.8 °F 29.59 in NW 4.0 mph 10.0 mph 91% 0.00 in
00:29 34.1 °F 31.8 °F 29.59 in NNW 1.0 mph 10.0 mph 91% 0.00 in
00:34 34.0 °F 31.9 °F 29.59 in NNW 1.0 mph 9.0 mph 92% 0.00 in
00:39 33.9 °F 31.8 °F 29.59 in NW 3.0 mph 9.0 mph 92% 0.00 in
00:44 33.8 °F 31.7 °F 29.60 in NW 5.0 mph 8.0 mph 92% 0.00 in
00:49 33.8 °F 31.7 °F 29.60 in WNW 4.0 mph 8.0 mph 92% 0.00 in
00:54 33.8 °F 31.7 °F 29.60 in NNW 1.0 mph 7.0 mph 92% 0.00 in
00:59 33.7 °F 31.9 °F 29.60 in NNW 5.0 mph 10.0 mph 93% 0.00 in
01:04 33.7 °F 31.9 °F 29.60 in NNW 2.0 mph 10.0 mph 93% 0.00 in
01:09 33.7 °F 31.9 °F 29.61 in NW 2.0 mph 8.0 mph 93% 0.00 in
01:14 33.7 °F 31.9 °F 29.61 in NNW 6.0 mph 12.0 mph 93% 0.00 in
01:19 33.6 °F 31.8 °F 29.61 in North 2.0 mph 12.0 mph 93% 0.00 in
01:24 33.6 °F 31.8 °F 29.61 in NW 3.0 mph 9.0 mph 93% 0.00 in
01:29 33.5 °F 31.7 °F 29.61 in NNW 4.0 mph 11.0 mph 93% 0.00 in
01:39 33.4 °F 31.6 °F 29.61 in NNW 2.0 mph 11.0 mph 93% 0.00 in
01:44 33.4 °F 31.6 °F 29.61 in NW 4.0 mph 9.0 mph 93% 0.00 in
01:54 33.3 °F 31.5 °F 29.62 in NW 3.0 mph 10.0 mph 93% 0.00 in
01:59 33.3 °F 31.5 °F 29.62 in NNW 2.0 mph 9.0 mph 93% 0.00 in
02:04 33.2 °F 31.4 °F 29.62 in NNW 2.0 mph 9.0 mph 93% 0.00 in
02:09 33.2 °F 31.7 °F 29.62 in NW 3.0 mph 7.0 mph 94% 0.00 in
02:14 33.2 °F 31.7 °F 29.62 in NNW 3.0 mph 8.0 mph 94% 0.00 in
02:19 33.1 °F 31.6 °F 29.62 in NNW 3.0 mph 10.0 mph 94% 0.00 in
02:24 33.1 °F 31.6 °F 29.62 in North 1.0 mph 10.0 mph 94% 0.00 in
02:29 33.0 °F 31.5 °F 29.62 in North 1.0 mph 4.0 mph 94% 0.00 in
02:34 33.0 °F 31.2 °F 29.62 in NW 3.0 mph 9.0 mph 93% 0.00 in
02:39 32.9 °F 31.1 °F 29.62 in NNW 3.0 mph 10.0 mph 93% 0.00 in
02:44 32.9 °F 31.4 °F 29.62 in NW 4.0 mph 12.0 mph 94% 0.00 in
02:49 32.8 °F 31.3 °F 29.63 in NW 5.0 mph 14.0 mph 94% 0.00 in
02:54 32.8 °F 31.3 °F 29.63 in NW 1.0 mph 14.0 mph 94% 0.00 in
02:59 32.8 °F 31.3 °F 29.63 in NNW 2.0 mph 5.0 mph 94% 0.00 in
03:04 32.8 °F 31.3 °F 29.62 in Calm   5.0 mph 94% 0.00 in
03:09 32.8 °F 31.3 °F 29.63 in North 1.0 mph 6.0 mph 94% 0.00 in
03:14 32.8 °F 31.3 °F 29.63 in NNW 2.0 mph 9.0 mph 94% 0.00 in
03:19 32.6 °F 31.1 °F 29.63 in Calm   9.0 mph 94% 0.00 in
03:24 32.6 °F 31.1 °F 29.63 in NNW 3.0 mph 9.0 mph 94% 0.00 in
03:29 32.5 °F 31.0 °F 29.63 in NNW 2.0 mph 9.0 mph 94% 0.00 in
03:39 32.4 °F 30.9 °F 29.63 in NW 2.0 mph 11.0 mph 94% 0.00 in
03:44 32.3 °F 30.8 °F 29.63 in NNW 7.0 mph 13.0 mph 94% 0.00 in
03:49 32.2 °F 30.7 °F 29.63 in North 3.0 mph 13.0 mph 94% 0.00 in
03:54 32.1 °F 30.6 °F 29.64 in NNW 2.0 mph 7.0 mph 94% 0.00 in
03:59 31.9 °F 30.4 °F 29.64 in North 1.0 mph 9.0 mph 94% 0.00 in
04:04 31.9 °F 30.4 °F 29.64 in Calm   9.0 mph 94% 0.00 in
04:09 31.9 °F 30.4 °F 29.64 in Calm   4.0 mph 94% 0.00 in
04:14 31.9 °F 30.4 °F 29.64 in Calm   6.0 mph 94% 0.00 in
04:19 31.9 °F 30.4 °F 29.64 in NNW 3.0 mph 8.0 mph 94% 0.00 in
04:29 31.8 °F 30.3 °F 29.65 in NW 1.0 mph 4.0 mph 94% 0.00 in
04:34 31.8 °F 30.3 °F 29.65 in NNW 3.0 mph 5.0 mph 94% 0.00 in
04:39 31.6 °F 30.1 °F 29.65 in NNW 1.0 mph 7.0 mph 94% 0.00 in
04:44 31.6 °F 30.1 °F 29.65 in Calm   7.0 mph 94% 0.00 in
04:49 31.5 °F 30.0 °F 29.65 in NNW 2.0 mph 7.0 mph 94% 0.00 in
04:54 31.4 °F 29.9 °F 29.66 in NNW 2.0 mph 7.0 mph 94% 0.00 in
04:59 31.3 °F 29.8 °F 29.66 in Calm   5.0 mph 94% 0.00 in
05:04 31.2 °F 29.7 °F 29.66 in NNW 3.0 mph 6.0 mph 94% 0.00 in
05:09 31.1 °F 29.6 °F 29.66 in North 1.0 mph 10.0 mph 94% 0.00 in
05:14 31.0 °F 29.5 °F 29.66 in North 1.0 mph 10.0 mph 94% 0.00 in
05:19 30.9 °F 29.4 °F 29.66 in North 1.0 mph 8.0 mph 94% 0.00 in
05:24 30.8 °F 29.3 °F 29.67 in North 3.0 mph 9.0 mph 94% 0.00 in
05:29 30.7 °F 29.2 °F 29.67 in NNW 1.0 mph 11.0 mph 94% 0.00 in
05:34 30.6 °F 29.1 °F 29.67 in Calm   11.0 mph 94% 0.00 in
05:44 30.6 °F 29.1 °F 29.67 in Calm   7.0 mph 94% 0.00 in
05:49 30.5 °F 29.0 °F 29.68 in North 2.0 mph 10.0 mph 94% 0.00 in
05:54 30.5 °F 29.0 °F 29.68 in North 2.0 mph 11.0 mph 94% 0.00 in
05:59 30.5 °F 29.0 °F 29.68 in North 2.0 mph 11.0 mph 94% 0.00 in
06:04 30.5 °F 29.0 °F 29.68 in Calm   6.0 mph 94% 0.00 in
06:09 30.4 °F 28.9 °F 29.68 in NNE 1.0 mph 6.0 mph 94% 0.00 in
06:19 30.3 °F 28.8 °F 29.69 in Calm   7.0 mph 94% 0.00 in
06:24 30.2 °F 28.7 °F 29.69 in Calm   5.0 mph 94% 0.00 in
06:29 30.2 °F 28.7 °F 29.69 in North 1.0 mph 7.0 mph 94% 0.00 in
06:34 30.2 °F 28.7 °F 29.69 in Calm   7.0 mph 94% 0.00 in
06:39 30.2 °F 28.7 °F 29.70 in Calm   5.0 mph 94% 0.00 in
06:44 30.2 °F 28.7 °F 29.70 in North 1.0 mph 10.0 mph 94% 0.00 in
06:49 30.2 °F 28.7 °F 29.70 in NNW 1.0 mph 10.0 mph 94% 0.00 in
06:54 30.2 °F 28.7 °F 29.70 in Calm   5.0 mph 94% 0.00 in
06:59 30.2 °F 28.7 °F 29.71 in Calm   5.0 mph 94% 0.00 in
07:05 30.2 °F 28.7 °F 29.71 in Calm   8.0 mph 94% 0.00 in
07:14 30.3 °F 28.8 °F 29.72 in Calm   6.0 mph 94% 0.00 in
07:19 30.4 °F 28.9 °F 29.72 in Calm   3.0 mph 94% 0.00 in
07:24 30.3 °F 28.8 °F 29.72 in Calm   8.0 mph 94% 0.00 in
07:34 30.2 °F 28.7 °F 29.73 in Calm   5.0 mph 94% 0.00 in
07:40 30.2 °F 28.7 °F 29.73 in Calm   5.0 mph 94% 0.00 in
07:49 30.2 °F 28.7 °F 29.73 in Calm   6.0 mph 94% 0.00 in
07:55 30.2 °F 28.7 °F 29.74 in NNE 2.0 mph 7.0 mph 94% 0.00 in
08:04 30.2 °F 28.7 °F 29.74 in North 1.0 mph 7.0 mph 94% 0.00 in
08:09 30.2 °F 28.7 °F 29.74 in Calm   7.0 mph 94% 0.00 in
08:14 30.1 °F 28.6 °F 29.74 in NNE 2.0 mph 8.0 mph 94% 0.00 in
08:19 30.1 °F 28.6 °F 29.75 in Calm   9.0 mph 94% 0.00 in
08:24 30.1 °F 28.6 °F 29.75 in North 2.0 mph 9.0 mph 94% 0.00 in
08:29 30.1 °F 28.6 °F 29.75 in NNE 2.0 mph 10.0 mph 94% 0.00 in
08:34 30.1 °F 28.6 °F 29.75 in Calm   10.0 mph 94% 0.00 in
08:44 30.2 °F 28.4 °F 29.75 in North 1.0 mph 7.0 mph 93% 0.00 in
08:50 30.2 °F 28.4 °F 29.75 in North 2.0 mph 8.0 mph 93% 0.00 in
08:59 30.3 °F 28.5 °F 29.76 in North 1.0 mph 8.0 mph 93% 0.00 in
09:05 30.4 °F 28.6 °F 29.76 in Calm   6.0 mph 93% 0.00 in
09:14 30.4 °F 28.6 °F 29.76 in NNW 2.0 mph 7.0 mph 93% 0.00 in
09:19 30.5 °F 28.5 °F 29.77 in NNE 1.0 mph 9.0 mph 92% 0.00 in
09:24 30.5 °F 28.5 °F 29.77 in North 1.0 mph 9.0 mph 92% 0.00 in
09:29 30.5 °F 28.5 °F 29.77 in North 1.0 mph 6.0 mph 92% 0.00 in
09:34 30.6 °F 28.6 °F 29.78 in Calm   6.0 mph 92% 0.00 in
09:39 30.6 °F 28.6 °F 29.78 in NNE 1.0 mph 5.0 mph 92% 0.00 in
09:45 30.6 °F 28.6 °F 29.78 in North 1.0 mph 5.0 mph 92% 0.00 in
09:54 30.8 °F 28.8 °F 29.78 in NNW 3.0 mph 7.0 mph 92% 0.00 in
09:59 30.8 °F 28.5 °F 29.78 in NNW 3.0 mph 7.0 mph 91% 0.00 in
10:04 30.8 °F 28.2 °F 29.78 in NNE 2.0 mph 7.0 mph 90% 0.00 in
10:09 30.9 °F 28.3 °F 29.78 in North 2.0 mph 7.0 mph 90% 0.00 in
10:14 31.0 °F 28.4 °F 29.79 in NNE 2.0 mph 4.0 mph 90% 0.00 in
10:19 31.1 °F 28.5 °F 29.79 in Calm   4.0 mph 90% 0.00 in
10:24 31.3 °F 28.4 °F 29.79 in NNE 1.0 mph 5.0 mph 89% 0.00 in
10:29 31.4 °F 28.8 °F 29.79 in NNW 2.0 mph 5.0 mph 90% 0.00 in
10:34 31.5 °F 28.6 °F 29.79 in Calm   4.0 mph 89% 0.00 in
10:39 31.5 °F 28.6 °F 29.79 in NNW 1.0 mph 3.0 mph 89% 0.00 in
10:44 31.6 °F 28.7 °F 29.80 in NW 2.0 mph 5.0 mph 89% 0.00 in
10:50 31.9 °F 29.0 °F 29.80 in NNW 1.0 mph 5.0 mph 89% 0.00 in
10:59 32.1 °F 29.0 °F 29.80 in NNW 2.0 mph 8.0 mph 88% 0.00 in
11:04 32.3 °F 29.1 °F 29.80 in NNW 2.0 mph 8.0 mph 88% 0.00 in
11:09 32.5 °F 29.3 °F 29.80 in Calm   7.0 mph 88% 0.00 in
11:14 32.7 °F 29.5 °F 29.80 in North 3.0 mph 8.0 mph 88% 0.01 in
11:19 32.7 °F 29.5 °F 29.80 in NNW 1.0 mph 8.0 mph 88% 0.01 in
11:24 32.6 °F 29.2 °F 29.80 in North 4.0 mph 9.0 mph 87% 0.01 in
11:29 32.7 °F 29.3 °F 29.80 in Calm   9.0 mph 87% 0.01 in
11:34 32.8 °F 29.4 °F 29.81 in North 2.0 mph 6.0 mph 87% 0.01 in
11:39 32.7 °F 29.3 °F 29.81 in NNW 1.0 mph 6.0 mph 87% 0.01 in
11:44 32.6 °F 29.2 °F 29.81 in NNW 3.0 mph 7.0 mph 87% 0.01 in
11:49 32.4 °F 28.7 °F 29.81 in NNW 1.0 mph 8.0 mph 86% 0.01 in
11:54 32.4 °F 29.0 °F 29.81 in Calm   8.0 mph 87% 0.01 in
11:59 32.4 °F 29.0 °F 29.81 in NNW 1.0 mph 3.0 mph 87% 0.01 in
12:04 32.3 °F 28.9 °F 29.81 in NW 1.0 mph 5.0 mph 87% 0.01 in
12:09 32.3 °F 28.9 °F 29.82 in NNW 2.0 mph 6.0 mph 87% 0.01 in
12:14 32.3 °F 28.9 °F 29.82 in NNW 2.0 mph 7.0 mph 87% 0.01 in
12:19 32.2 °F 29.0 °F 29.82 in Calm   7.0 mph 88% 0.01 in
12:24 32.4 °F 29.2 °F 29.82 in NNW 1.0 mph 5.0 mph 88% 0.01 in
12:29 32.6 °F 29.4 °F 29.82 in NNW 1.0 mph 5.0 mph 88% 0.01 in
12:34 32.6 °F 29.4 °F 29.82 in NNW 1.0 mph 6.0 mph 88% 0.01 in
12:39 32.6 °F 29.4 °F 29.82 in NNW 2.0 mph 6.0 mph 88% 0.01 in
12:44 32.6 °F 29.2 °F 29.82 in North 2.0 mph 5.0 mph 87% 0.02 in
12:49 32.7 °F 29.3 °F 29.83 in North 1.0 mph 7.0 mph 87% 0.02 in
12:54 32.7 °F 29.3 °F 29.82 in NW 2.0 mph 7.0 mph 87% 0.02 in
12:59 32.8 °F 29.4 °F 29.83 in North 1.0 mph 6.0 mph 87% 0.02 in
13:04 32.9 °F 29.5 °F 29.83 in NE 1.0 mph 5.0 mph 87% 0.02 in
13:09 32.8 °F 29.1 °F 29.83 in Calm   6.0 mph 86% 0.02 in
13:14 32.9 °F 29.2 °F 29.83 in NW 3.0 mph 8.0 mph 86% 0.02 in
13:19 32.9 °F 29.2 °F 29.83 in NNW 2.0 mph 8.0 mph 86% 0.02 in
13:24 33.0 °F 29.3 °F 29.83 in Calm   7.0 mph 86% 0.02 in
13:29 33.0 °F 29.3 °F 29.83 in Calm   4.0 mph 86% 0.02 in
13:34 33.1 °F 29.4 °F 29.83 in Calm   7.0 mph 86% 0.02 in
13:44 33.2 °F 29.2 °F 29.83 in NNW 2.0 mph 6.0 mph 85% 0.02 in
13:49 33.3 °F 29.3 °F 29.83 in Calm   6.0 mph 85% 0.02 in
13:54 33.3 °F 29.3 °F 29.83 in North 1.0 mph 6.0 mph 85% 0.02 in
13:59 33.4 °F 29.1 °F 29.83 in NNE 1.0 mph 5.0 mph 84% 0.02 in
14:04 33.4 °F 29.1 °F 29.83 in NE 1.0 mph 7.0 mph 84% 0.02 in
14:09 33.6 °F 29.3 °F 29.83 in North 1.0 mph 7.0 mph 84% 0.02 in
14:14 33.6 °F 29.0 °F 29.83 in NNW 3.0 mph 6.0 mph 83% 0.02 in
14:19 33.6 °F 29.0 °F 29.83 in NW 2.0 mph 6.0 mph 83% 0.02 in
14:24 33.8 °F 29.2 °F 29.83 in Calm   5.0 mph 83% 0.02 in
14:29 34.0 °F 29.4 °F 29.83 in Calm   3.0 mph 83% 0.02 in
14:34 34.1 °F 29.5 °F 29.83 in WNW 4.0 mph 6.0 mph 83% 0.02 in
14:40 34.1 °F 29.2 °F 29.83 in NW 4.0 mph 8.0 mph 82% 0.02 in
14:45 34.1 °F 29.2 °F 29.83 in Calm   8.0 mph 82% 0.02 in
14:50 34.3 °F 29.4 °F 29.83 in NW 4.0 mph 6.0 mph 82% 0.02 in
14:55 34.3 °F 29.1 °F 29.83 in NW 3.0 mph 6.0 mph 81% 0.02 in
15:04 34.4 °F 29.5 °F 29.83 in NNW 3.0 mph 6.0 mph 82% 0.02 in
15:10 34.4 °F 29.5 °F 29.84 in Calm   5.0 mph 82% 0.02 in
15:15 34.4 °F 29.5 °F 29.84 in NW 1.0 mph 5.0 mph 82% 0.02 in
15:20 34.6 °F 29.4 °F 29.84 in NNW 2.0 mph 5.0 mph 81% 0.02 in
15:29 34.5 °F 29.3 °F 29.84 in NNW 2.0 mph 8.0 mph 81% 0.02 in
15:34 34.6 °F 29.1 °F 29.84 in NW 2.0 mph 8.0 mph 80% 0.02 in
15:39 34.7 °F 29.2 °F 29.84 in Calm   6.0 mph 80% 0.02 in
15:44 34.6 °F 29.1 °F 29.84 in NW 1.0 mph 5.0 mph 80% 0.02 in
15:49 34.6 °F 29.1 °F 29.84 in Calm   5.0 mph 80% 0.02 in
16:00 34.4 °F 28.9 °F 29.85 in NW 1.0 mph 3.0 mph 80% 0.02 in
16:10 34.1 °F 28.6 °F 29.84 in WNW 3.0 mph 6.0 mph 80% 0.02 in
16:19 33.8 °F 28.6 °F 29.85 in WNW 3.0 mph 5.0 mph 81% 0.02 in
16:24 33.7 °F 28.5 °F 29.85 in NW 2.0 mph 5.0 mph 81% 0.02 in
16:29 33.6 °F 28.7 °F 29.85 in NW 1.0 mph 5.0 mph 82% 0.02 in
16:34 33.6 °F 29.0 °F 29.85 in Calm   4.0 mph 83% 0.02 in
16:40 33.5 °F 28.9 °F 29.85 in NW 2.0 mph 5.0 mph 83% 0.02 in
16:44 33.5 °F 28.9 °F 29.86 in NNW 2.0 mph 5.0 mph 83% 0.02 in
16:49 33.4 °F 28.8 °F 29.86 in West 3.0 mph 5.0 mph 83% 0.02 in
16:54 33.4 °F 28.8 °F 29.86 in WNW 2.0 mph 5.0 mph 83% 0.02 in
16:59 33.4 °F 29.1 °F 29.86 in WNW 1.0 mph 5.0 mph 84% 0.02 in
17:04 33.4 °F 29.1 °F 29.86 in NW 2.0 mph 4.0 mph 84% 0.02 in
17:09 33.4 °F 29.1 °F 29.87 in NW 3.0 mph 8.0 mph 84% 0.02 in
17:14 33.3 °F 29.0 °F 29.87 in NNW 5.0 mph 8.0 mph 84% 0.02 in
17:19 33.2 °F 28.9 °F 29.87 in NW 4.0 mph 8.0 mph 84% 0.02 in
17:24 33.2 °F 29.2 °F 29.87 in NW 3.0 mph 7.0 mph 85% 0.02 in
17:29 33.1 °F 29.1 °F 29.87 in NW 2.0 mph 7.0 mph 85% 0.02 in
17:34 33.1 °F 29.4 °F 29.87 in NNW 3.0 mph 7.0 mph 86% 0.02 in
17:39 33.0 °F 29.3 °F 29.88 in NW 4.0 mph 11.0 mph 86% 0.02 in
17:44 33.0 °F 29.3 °F 29.88 in NNW 3.0 mph 11.0 mph 86% 0.02 in
17:49 33.1 °F 31.0 °F 29.88 in NNW 3.0 mph 10.0 mph 92% 0.02 in
17:54 33.1 °F 31.0 °F 29.88 in NW 3.0 mph 10.0 mph 92% 0.02 in
17:59 33.1 °F 29.4 °F 29.88 in NW 1.0 mph 9.0 mph 86% 0.02 in
18:04 33.1 °F 29.4 °F 29.88 in NNW 1.0 mph 8.0 mph 86% 0.02 in
18:09 33.1 °F 29.4 °F 29.88 in NNW 2.0 mph 7.0 mph 86% 0.02 in
18:14 33.0 °F 29.3 °F 29.88 in NW 1.0 mph 8.0 mph 86% 0.02 in
18:19 33.0 °F 29.3 °F 29.88 in NNW 3.0 mph 8.0 mph 86% 0.02 in
18:24 33.0 °F 29.3 °F 29.89 in NNW 2.0 mph 6.0 mph 86% 0.02 in
18:29 33.0 °F 29.3 °F 29.89 in NW 2.0 mph 7.0 mph 86% 0.02 in
18:34 32.9 °F 29.2 °F 29.89 in Calm   7.0 mph 86% 0.02 in
18:39 32.9 °F 29.2 °F 29.89 in NW 1.0 mph 6.0 mph 86% 0.02 in
18:44 32.8 °F 29.1 °F 29.89 in NW 2.0 mph 8.0 mph 86% 0.02 in
18:49 32.8 °F 29.1 °F 29.89 in NNW 4.0 mph 9.0 mph 86% 0.02 in
18:54 32.7 °F 29.0 °F 29.90 in NNW 4.0 mph 9.0 mph 86% 0.02 in
18:59 32.7 °F 29.0 °F 29.90 in NW 5.0 mph 9.0 mph 86% 0.02 in
19:04 32.6 °F 28.9 °F 29.90 in NW 3.0 mph 9.0 mph 86% 0.02 in
19:09 32.6 °F 28.9 °F 29.90 in Calm   6.0 mph 86% 0.02 in
19:14 32.5 °F 28.8 °F 29.90 in NNW 1.0 mph 5.0 mph 86% 0.02 in
19:19 32.4 °F 28.7 °F 29.90 in NNW 1.0 mph 5.0 mph 86% 0.02 in
19:24 32.4 °F 28.7 °F 29.91 in NW 2.0 mph 8.0 mph 86% 0.02 in
19:29 32.5 °F 28.5 °F 29.91 in NNW 1.0 mph 8.0 mph 85% 0.02 in
19:34 32.5 °F 28.5 °F 29.91 in NW 2.0 mph 6.0 mph 85% 0.02 in
19:39 32.5 °F 28.5 °F 29.91 in Calm   8.0 mph 85% 0.02 in
19:44 32.6 °F 28.3 °F 29.91 in Calm   8.0 mph 84% 0.02 in
19:49 32.7 °F 28.1 °F 29.91 in NW 7.0 mph 12.0 mph 83% 0.02 in
19:59 33.1 °F 27.6 °F 29.92 in NNW 5.0 mph 11.0 mph 80% 0.02 in
20:04 33.2 °F 27.7 °F 29.92 in NW 2.0 mph 11.0 mph 80% 0.02 in
20:09 33.2 °F 27.4 °F 29.92 in NW 3.0 mph 11.0 mph 79% 0.02 in
20:14 33.2 °F 27.4 °F 29.92 in NNW 1.0 mph 8.0 mph 79% 0.02 in
20:19 33.2 °F 27.4 °F 29.92 in NNW 1.0 mph 10.0 mph 79% 0.02 in
20:24 33.2 °F 27.4 °F 29.92 in NNW 2.0 mph 10.0 mph 79% 0.02 in
20:29 33.1 °F 27.3 °F 29.92 in NNW 2.0 mph 6.0 mph 79% 0.02 in
20:39 33.0 °F 27.2 °F 29.92 in NNW 4.0 mph 7.0 mph 79% 0.02 in
20:44 33.0 °F 27.2 °F 29.92 in NW 1.0 mph 7.0 mph 79% 0.02 in
20:49 32.9 °F 27.1 °F 29.93 in WNW 1.0 mph 5.0 mph 79% 0.02 in
20:59 32.9 °F 27.1 °F 29.93 in NW 2.0 mph 5.0 mph 79% 0.02 in
21:04 33.0 °F 27.2 °F 29.92 in Calm   8.0 mph 79% 0.02 in
21:09 33.0 °F 27.2 °F 29.93 in NW 2.0 mph 8.0 mph 79% 0.02 in
21:19 33.0 °F 27.5 °F 29.93 in NW 5.0 mph 16.0 mph 80% 0.02 in
21:24 32.8 °F 27.6 °F 29.93 in NW 6.0 mph 16.0 mph 81% 0.02 in
21:29 32.5 °F 27.6 °F 29.93 in NW 2.0 mph 10.0 mph 82% 0.02 in
21:34 32.4 °F 27.5 °F 29.93 in NW 5.0 mph 9.0 mph 82% 0.02 in
21:39 32.2 °F 27.0 °F 29.93 in NNW 6.0 mph 15.0 mph 81% 0.02 in
21:44 31.9 °F 27.0 °F 29.93 in NW 4.0 mph 15.0 mph 82% 0.02 in
21:49 31.7 °F 27.1 °F 29.93 in NW 4.0 mph 14.0 mph 83% 0.02 in
21:54 31.6 °F 27.0 °F 29.93 in NW 5.0 mph 13.0 mph 83% 0.02 in
21:59 31.4 °F 26.8 °F 29.93 in NW 2.0 mph 9.0 mph 83% 0.02 in
22:04 31.3 °F 26.7 °F 29.93 in NW 2.0 mph 8.0 mph 83% 0.02 in
22:09 31.3 °F 26.7 °F 29.93 in NNW 1.0 mph 7.0 mph 83% 0.02 in
22:14 31.4 °F 26.8 °F 29.93 in NNW 1.0 mph 7.0 mph 83% 0.02 in
22:19 31.4 °F 26.5 °F 29.93 in NW 4.0 mph 7.0 mph 82% 0.02 in
22:24 31.5 °F 26.6 °F 29.93 in NW 2.0 mph 7.0 mph 82% 0.02 in
22:29 31.6 °F 26.4 °F 29.93 in NNW 4.0 mph 6.0 mph 81% 0.02 in
22:35 31.8 °F 26.3 °F 29.93 in NW 5.0 mph 9.0 mph 80% 0.02 in
22:44 32.1 °F 26.0 °F 29.93 in NNW 5.0 mph 11.0 mph 78% 0.02 in
22:49 32.2 °F 25.8 °F 29.94 in NNW 3.0 mph 13.0 mph 77% 0.02 in
22:59 32.3 °F 25.3 °F 29.94 in NNW 6.0 mph 18.0 mph 75% 0.02 in
23:04 32.4 °F 25.0 °F 29.94 in NW 2.0 mph 14.0 mph 74% 0.02 in
23:09 32.4 °F 24.7 °F 29.94 in NNW 4.0 mph 12.0 mph 73% 0.02 in
23:14 32.4 °F 24.4 °F 29.94 in NNW 7.0 mph 15.0 mph 72% 0.02 in
23:19 32.4 °F 24.4 °F 29.94 in NW 5.0 mph 15.0 mph 72% 0.02 in
23:24 32.4 °F 24.1 °F 29.94 in WNW 6.0 mph 13.0 mph 71% 0.02 in
23:29 32.4 °F 24.1 °F 29.94 in NW 3.0 mph 16.0 mph 71% 0.02 in
23:34 32.4 °F 23.7 °F 29.95 in NW 6.0 mph 16.0 mph 70% 0.02 in
23:39 32.4 °F 23.7 °F 29.95 in NW 4.0 mph 11.0 mph 70% 0.02 in
23:44 32.3 °F 23.6 °F 29.95 in NW 7.0 mph 13.0 mph 70% 0.02 in
23:49 32.3 °F 23.6 °F 29.94 in NNW 3.0 mph 13.0 mph 70% 0.02 in
23:59 32.2 °F 23.9 °F 29.95 in NW 4.0 mph 10.0 mph 71% 0.02 in
Westford Weather
Compliments of Weather Underground

 
 
Current Radar Loop:

Copyright © WestfordWeather.net 2007-2014. All rights reserved.